Itbayat, Philippines
Current Conditions -  °F | °C
As of 6:30 AM on Tuesday 25 Nov 2014 (Local Time) from RCKH Reporting Station
Few Clouds Few Clouds  
Wind Chill: 68°   Ceiling: Unl
Heat Index: 68°   Visibility: 5mi
Dew Point: 64°   Wind: 3mph
Humidity: 88%   Direction: 40°NE
Pressure: 29.94"   Gusts: NA
Location:  20.79°N, 121.84°E
Report Text: RCKH 242230Z 04003KT 8000 FEW015 20/18 Q1014 NOSIG RMK A2995
Loading
Personal Weather Stations






























Interactive Weather Map New forecast layout! Learn more

10-Day Weather Forecast

Advertisements
Track Severe Weather on mobile